This is the latest recevied weather packets stored in our database for station/object EA7RX-13. If no packets are shown the sender has not sent any weather packets the latest 10 day(s).
| Time | Temp. | Humidity | Pressure | Rain* | Wind** | Luminosity | Snow |
|---|---|---|---|---|---|---|---|
| 1788135989 | 73° F | 48% | 762 mmHg | - | - | - | - |
| 1788135389 | 73° F | 47% | 762 mmHg | - | - | - | - |
| 1788134789 | 74° F | 43% | 761.9 mmHg | - | - | - | - |
| 1788134189 | 74° F | 44% | 761.9 mmHg | - | - | - | - |
| 1788133589 | 74° F | 44% | 762 mmHg | - | - | - | - |
| 1788132989 | 74° F | 45% | 762 mmHg | - | - | - | - |
| 1788132389 | 75° F | 43% | 761.8 mmHg | - | - | - | - |
| 1788131789 | 75° F | 42% | 761.9 mmHg | - | - | - | - |
| 1788131189 | 76° F | 42% | 761.9 mmHg | - | - | - | - |
| 1788130589 | 76° F | 42% | 761.9 mmHg | - | - | - | - |
| 1788129989 | 75° F | 43% | 761.9 mmHg | - | - | - | - |
| 1788129389 | 75° F | 45% | 761.9 mmHg | - | - | - | - |
| 1788128789 | 76° F | 42% | 761.7 mmHg | - | - | - | - |
| 1788128189 | 76° F | 43% | 761.8 mmHg | - | - | - | - |
| 1788127589 | 76° F | 41% | 761.7 mmHg | - | - | - | - |
| 1788126989 | 77° F | 41% | 761.5 mmHg | - | - | - | - |
| 1788126389 | 76° F | 42% | 761.5 mmHg | - | - | - | - |
| 1788125789 | 76° F | 44% | 761.5 mmHg | - | - | - | - |
| 1788125189 | 76° F | 44% | 761.5 mmHg | - | - | - | - |
| 1788124589 | 76° F | 46% | 761.5 mmHg | - | - | - | - |
| 1788123989 | 77° F | 43% | 761.3 mmHg | - | - | - | - |
| 1788123389 | 77° F | 43% | 761.3 mmHg | - | - | - | - |
| 1788122789 | 78° F | 41% | 761.2 mmHg | - | - | - | - |
| 1788122189 | 77° F | 43% | 761.3 mmHg | - | - | - | - |
| 1788121589 | 79° F | 42% | 761.2 mmHg | - | - | - | - |
* Rain since midnight (hover to see other rain measurements)
** Current wind speed in m/s (hover to see current wind gust speed)